createdAt,value
2019-05-06T00:00:27.687Z,8.98
2019-05-06T00:01:34.045Z,8.95
2019-05-06T00:02:39.270Z,8.94
2019-05-06T00:03:44.868Z,8.92
2019-05-06T00:04:50.080Z,8.90
2019-05-06T00:05:55.423Z,8.89
2019-05-06T00:07:00.407Z,8.87
2019-05-06T00:08:05.742Z,8.86
2019-05-06T00:09:10.866Z,8.85
2019-05-06T00:10:24.722Z,8.83
2019-05-06T00:11:29.786Z,8.82
2019-05-06T00:12:34.843Z,8.79
2019-05-06T00:13:40.092Z,8.79
2019-05-06T00:14:45.425Z,8.79
2019-05-06T00:15:50.363Z,8.79
2019-05-06T00:16:58.515Z,8.77
2019-05-06T00:18:04.491Z,8.77
2019-05-06T00:19:09.538Z,8.76
2019-05-06T00:20:15.447Z,8.76
2019-05-06T00:21:20.847Z,8.75
2019-05-06T00:22:26.842Z,8.74
2019-05-06T00:23:38.245Z,8.72
2019-05-06T00:24:59.123Z,8.71
2019-05-06T00:26:33.970Z,8.69
2019-05-06T00:27:58.126Z,8.64
2019-05-06T00:29:07.203Z,8.62
2019-05-06T00:30:14.841Z,8.60
2019-05-06T00:31:19.973Z,8.57
2019-05-06T00:32:25.300Z,8.57
2019-05-06T00:33:30.548Z,8.55
2019-05-06T00:34:35.921Z,8.54
2019-05-06T00:35:40.975Z,8.53
2019-05-06T00:36:46.106Z,8.53
2019-05-06T00:37:53.577Z,8.52
2019-05-06T00:39:01.574Z,8.51
2019-05-06T00:40:18.699Z,8.50
2019-05-06T00:41:27.138Z,8.49
2019-05-06T00:42:37.683Z,8.47
2019-05-06T00:43:43.699Z,8.46
2019-05-06T00:44:48.714Z,8.45
2019-05-06T00:45:53.810Z,8.43
2019-05-06T00:46:58.707Z,8.41
2019-05-06T00:48:04.657Z,8.40
2019-05-06T00:49:09.644Z,8.39
2019-05-06T00:50:16.562Z,8.37
2019-05-06T00:51:21.585Z,8.37
2019-05-06T00:52:26.656Z,8.35
2019-05-06T00:53:34.732Z,8.34
2019-05-06T00:54:39.800Z,8.32
2019-05-06T00:55:44.857Z,8.31
2019-05-06T00:56:49.888Z,8.30
2019-05-06T00:57:55.233Z,8.28
2019-05-06T00:59:00.276Z,8.26
2019-05-06T01:00:05.401Z,8.27
2019-05-06T01:01:24.076Z,8.24
2019-05-06T01:02:17.512Z,8.24
2019-05-06T01:03:23.827Z,8.23
2019-05-06T01:04:28.906Z,8.23
2019-05-06T01:05:34.024Z,8.22
2019-05-06T01:06:39.025Z,8.22
2019-05-06T01:07:44.156Z,8.22
2019-05-06T01:08:49.176Z,8.21
2019-05-06T01:09:54.307Z,8.22
2019-05-06T01:10:59.913Z,8.23
2019-05-06T01:12:06.915Z,8.22
2019-05-06T01:13:21.385Z,8.22
2019-05-06T01:14:31.672Z,8.20
2019-05-06T01:15:36.830Z,8.19
2019-05-06T01:16:43.833Z,8.18
2019-05-06T01:17:48.762Z,8.16
2019-05-06T01:18:54.337Z,8.17
2019-05-06T01:19:59.286Z,8.17
2019-05-06T01:21:10.510Z,8.13
2019-05-06T01:22:15.685Z,8.13
2019-05-06T01:23:20.854Z,8.10
2019-05-06T01:24:26.188Z,8.10
2019-05-06T01:25:31.636Z,8.09
2019-05-06T01:26:37.225Z,8.08
2019-05-06T01:27:44.441Z,8.08
2019-05-06T01:28:49.223Z,8.08
2019-05-06T01:29:54.896Z,8.07
2019-05-06T01:31:00.083Z,8.07
2019-05-06T01:32:05.163Z,8.07
2019-05-06T01:33:10.185Z,8.08
2019-05-06T01:34:16.016Z,8.09
2019-05-06T01:35:20.926Z,8.09
2019-05-06T01:36:26.161Z,8.10
2019-05-06T01:37:31.523Z,8.10
2019-05-06T01:38:44.431Z,8.10
2019-05-06T01:40:06.914Z,8.10
2019-05-06T01:41:30.926Z,8.08
2019-05-06T01:42:39.753Z,8.08
2019-05-06T01:43:44.817Z,8.05
2019-05-06T01:44:50.180Z,8.05
2019-05-06T01:45:55.225Z,8.04
2019-05-06T01:47:00.261Z,8.05
2019-05-06T01:48:05.362Z,8.04
2019-05-06T01:49:11.026Z,8.02
2019-05-06T01:50:16.584Z,8.00
2019-05-06T01:51:24.102Z,7.99
2019-05-06T01:52:29.446Z,7.96
2019-05-06T01:53:34.391Z,7.96
2019-05-06T01:54:39.344Z,7.96
2019-05-06T01:55:44.273Z,7.93
2019-05-06T01:56:49.195Z,7.94
2019-05-06T01:57:54.625Z,7.94
2019-05-06T01:58:59.639Z,7.92
2019-05-06T02:00:06.219Z,7.93
2019-05-06T02:01:11.534Z,7.93
2019-05-06T02:02:16.521Z,7.95
2019-05-06T02:03:21.473Z,7.96
2019-05-06T02:04:26.493Z,7.97
2019-05-06T02:05:33.555Z,7.98
2019-05-06T02:06:38.241Z,7.98
2019-05-06T02:07:44.148Z,8.00
2019-05-06T02:08:49.243Z,8.00
2019-05-06T02:09:54.456Z,8.00
2019-05-06T02:10:59.722Z,8.00
2019-05-06T02:12:05.072Z,7.98
2019-05-06T02:13:09.991Z,7.98
2019-05-06T02:14:15.450Z,7.96
2019-05-06T02:15:20.604Z,7.96
2019-05-06T02:16:25.566Z,7.93
2019-05-06T02:17:30.941Z,7.92
2019-05-06T02:18:36.053Z,7.90
2019-05-06T02:19:41.239Z,7.88
2019-05-06T02:20:47.094Z,7.88
2019-05-06T02:22:07.926Z,7.88
2019-05-06T02:23:16.175Z,7.87
2019-05-06T02:24:24.394Z,7.88
2019-05-06T02:25:34.817Z,7.85
2019-05-06T02:26:39.912Z,7.86
2019-05-06T02:27:44.909Z,7.88
2019-05-06T02:28:51.760Z,7.86
2019-05-06T02:30:08.054Z,7.88
2019-05-06T02:31:30.486Z,7.87
2019-05-06T02:32:55.765Z,7.86
2019-05-06T02:34:19.895Z,7.85
2019-05-06T02:35:27.882Z,7.85
2019-05-06T02:36:45.744Z,7.82
2019-05-06T02:37:50.896Z,7.84
2019-05-06T02:38:56.209Z,7.83
2019-05-06T02:40:04.351Z,7.82
2019-05-06T02:41:09.642Z,7.82
2019-05-06T02:42:14.646Z,7.80
2019-05-06T02:43:22.907Z,7.80
2019-05-06T02:44:26.525Z,7.80
2019-05-06T02:45:33.518Z,7.79
2019-05-06T02:46:43.826Z,7.79
2019-05-06T02:47:56.510Z,7.81
2019-05-06T02:49:13.346Z,7.81
2019-05-06T02:50:20.362Z,7.81
2019-05-06T02:51:27.348Z,7.80
2019-05-06T02:52:32.985Z,7.80
2019-05-06T02:53:38.374Z,7.80
2019-05-06T02:54:43.318Z,7.80
2019-05-06T02:55:48.290Z,7.78
2019-05-06T02:56:53.557Z,7.78
2019-05-06T02:57:58.609Z,7.76
2019-05-06T02:59:04.108Z,7.74
2019-05-06T03:00:13.291Z,7.72
2019-05-06T03:01:18.297Z,7.70
2019-05-06T03:02:38.089Z,7.68
2019-05-06T03:03:33.357Z,7.65
2019-05-06T03:04:37.156Z,7.64
2019-05-06T03:05:44.025Z,7.63
2019-05-06T03:06:48.707Z,7.64
2019-05-06T03:07:57.215Z,7.63
2019-05-06T03:09:02.976Z,7.62
2019-05-06T03:10:08.410Z,7.60
2019-05-06T03:11:13.950Z,7.59
2019-05-06T03:12:18.840Z,7.58
2019-05-06T03:13:24.086Z,7.58
2019-05-06T03:14:29.077Z,7.59
2019-05-06T03:15:34.446Z,7.59
2019-05-06T03:16:39.726Z,7.59
2019-05-06T03:17:44.750Z,7.57
2019-05-06T03:18:52.870Z,7.56
2019-05-06T03:19:57.698Z,7.56
2019-05-06T03:21:20.363Z,7.55
2019-05-06T03:22:44.906Z,7.54
2019-05-06T03:23:54.574Z,7.54
2019-05-06T03:25:06.877Z,7.53
2019-05-06T03:26:13.641Z,7.53
2019-05-06T03:27:19.023Z,7.51
2019-05-06T03:28:23.943Z,7.51
2019-05-06T03:29:29.096Z,7.49
2019-05-06T03:30:36.102Z,7.49
2019-05-06T03:31:46.053Z,7.49
2019-05-06T03:33:27.395Z,7.48
2019-05-06T03:34:16.039Z,7.47
2019-05-06T03:35:25.052Z,7.47
2019-05-06T03:36:18.345Z,7.47
2019-05-06T03:37:17.272Z,7.47
2019-05-06T03:38:22.920Z,7.46
2019-05-06T03:39:28.081Z,7.46
2019-05-06T03:40:36.545Z,7.47
2019-05-06T03:41:43.426Z,7.48
2019-05-06T03:42:46.776Z,7.48
2019-05-06T03:43:54.377Z,7.48
2019-05-06T03:45:04.121Z,7.49
2019-05-06T03:46:26.767Z,7.48
2019-05-06T03:47:59.906Z,7.48
2019-05-06T03:49:06.402Z,7.50
2019-05-06T03:50:13.296Z,7.52
2019-05-06T03:51:18.437Z,7.53
2019-05-06T03:52:24.976Z,7.54
2019-05-06T03:53:33.392Z,7.56
2019-05-06T03:54:38.645Z,7.57
2019-05-06T03:55:47.046Z,7.58
2019-05-06T03:56:53.719Z,7.59
2019-05-06T03:57:58.752Z,7.60
2019-05-06T03:59:04.363Z,7.63
2019-05-06T04:00:13.013Z,7.65
2019-05-06T04:01:20.017Z,7.66
2019-05-06T04:02:25.172Z,7.67
2019-05-06T04:03:43.910Z,7.70
2019-05-06T04:04:36.987Z,7.71
2019-05-06T04:05:43.724Z,7.72
2019-05-06T04:06:48.877Z,7.73
2019-05-06T04:07:54.387Z,7.76
2019-05-06T04:08:59.457Z,7.77
2019-05-06T04:10:05.089Z,7.79
2019-05-06T04:11:13.594Z,7.80
2019-05-06T04:12:19.628Z,7.82
2019-05-06T04:13:24.589Z,7.86
2019-05-06T04:14:33.745Z,7.88
2019-05-06T04:15:56.103Z,7.90
2019-05-06T04:17:08.428Z,7.91
2019-05-06T04:18:14.001Z,7.92
2019-05-06T04:19:26.587Z,7.93
2019-05-06T04:20:48.596Z,7.95
2019-05-06T04:21:59.818Z,7.95
2019-05-06T04:23:23.538Z,7.95
2019-05-06T04:24:46.694Z,7.96
2019-05-06T04:26:00.084Z,7.99
2019-05-06T04:27:29.737Z,8.00
2019-05-06T04:28:35.736Z,8.01
2019-05-06T04:29:42.833Z,8.04
2019-05-06T04:30:48.848Z,8.06
2019-05-06T04:31:54.441Z,8.08
2019-05-06T04:32:59.427Z,8.09
2019-05-06T04:34:13.464Z,8.11
2019-05-06T04:35:13.562Z,8.11
2019-05-06T04:36:19.137Z,8.14
2019-05-06T04:37:24.405Z,8.14
2019-05-06T04:38:29.791Z,8.14
2019-05-06T04:39:34.873Z,8.16
2019-05-06T04:40:40.003Z,8.18
2019-05-06T04:41:45.249Z,8.22
2019-05-06T04:42:52.808Z,8.25
2019-05-06T04:43:57.334Z,8.26
2019-05-06T04:45:04.740Z,8.28
2019-05-06T04:46:09.388Z,8.30
2019-05-06T04:47:14.965Z,8.29
2019-05-06T04:48:20.119Z,8.31
2019-05-06T04:49:25.191Z,8.32
2019-05-06T04:50:33.138Z,8.33
2019-05-06T04:51:38.500Z,8.34
2019-05-06T04:52:43.880Z,8.36
2019-05-06T04:53:49.130Z,8.37
2019-05-06T04:54:54.704Z,8.38
2019-05-06T04:56:03.451Z,8.42
2019-05-06T04:57:06.966Z,8.43
2019-05-06T04:58:13.388Z,8.43
2019-05-06T04:59:18.849Z,8.43
2019-05-06T05:00:23.980Z,8.44
2019-05-06T05:01:29.202Z,8.45
2019-05-06T05:02:34.563Z,8.43
2019-05-06T05:03:42.577Z,8.44
2019-05-06T05:04:46.861Z,8.43
2019-05-06T05:05:53.070Z,8.41
2019-05-06T05:06:58.533Z,8.40
2019-05-06T05:08:03.823Z,8.41
2019-05-06T05:09:08.883Z,8.42
2019-05-06T05:10:23.248Z,8.42
2019-05-06T05:11:36.603Z,8.43
2019-05-06T05:13:03.501Z,8.45
2019-05-06T05:14:21.722Z,8.46
2019-05-06T05:15:41.896Z,8.45
2019-05-06T05:17:02.186Z,8.48
2019-05-06T05:18:17.762Z,8.50
2019-05-06T05:19:23.169Z,8.53
2019-05-06T05:20:37.676Z,8.53
2019-05-06T05:21:35.462Z,8.53
2019-05-06T05:22:42.367Z,8.53
2019-05-06T05:23:47.504Z,8.54
2019-05-06T05:24:52.807Z,8.55
2019-05-06T05:25:57.852Z,8.58
2019-05-06T05:27:03.255Z,8.59
2019-05-06T05:28:08.451Z,8.61
2019-05-06T05:29:13.671Z,8.64
2019-05-06T05:30:18.707Z,8.68
2019-05-06T05:31:24.097Z,8.70
2019-05-06T05:32:29.489Z,8.72
2019-05-06T05:33:34.600Z,8.76
2019-05-06T05:34:40.947Z,8.79
2019-05-06T05:35:46.107Z,8.79
2019-05-06T05:36:52.041Z,8.81
2019-05-06T05:37:57.238Z,8.81
2019-05-06T05:39:03.319Z,8.78
2019-05-06T05:40:08.571Z,8.78
2019-05-06T05:41:13.704Z,8.77
2019-05-06T05:42:25.150Z,8.75
2019-05-06T05:43:42.699Z,8.75
2019-05-06T05:44:48.303Z,8.75
2019-05-06T05:45:53.594Z,8.78
2019-05-06T05:46:59.024Z,8.78
2019-05-06T05:48:08.866Z,8.78
2019-05-06T05:49:36.651Z,8.79
2019-05-06T05:50:42.136Z,8.80
2019-05-06T05:51:47.749Z,8.80
2019-05-06T05:52:52.854Z,8.84
2019-05-06T05:53:58.216Z,8.86
2019-05-06T05:55:03.975Z,8.88
2019-05-06T05:56:09.158Z,8.90
2019-05-06T05:57:14.105Z,8.94
2019-05-06T05:58:19.552Z,8.96
2019-05-06T05:59:24.699Z,8.96
2019-05-06T06:00:32.386Z,8.97
2019-05-06T06:01:37.880Z,8.98
2019-05-06T06:02:43.850Z,9.00
2019-05-06T06:03:49.238Z,9.02
2019-05-06T06:04:57.739Z,9.05
2019-05-06T06:06:03.041Z,9.07
2019-05-06T06:07:08.349Z,9.11
2019-05-06T06:08:13.777Z,9.15
2019-05-06T06:09:22.244Z,9.20
2019-05-06T06:10:57.930Z,9.24
2019-05-06T06:12:05.536Z,9.27
2019-05-06T06:13:12.622Z,9.31
2019-05-06T06:14:56.156Z,9.34
2019-05-06T06:16:23.586Z,9.37
2019-05-06T06:17:55.044Z,9.43
2019-05-06T06:19:17.786Z,9.50
2019-05-06T06:20:42.385Z,9.52
2019-05-06T06:21:55.586Z,9.54
2019-05-06T06:23:05.415Z,9.54
2019-05-06T06:24:16.133Z,9.58
2019-05-06T06:25:23.624Z,9.60
2019-05-06T06:26:28.182Z,9.63
2019-05-06T06:27:48.056Z,9.65
2019-05-06T06:28:53.483Z,9.68
2019-05-06T06:29:58.603Z,9.72
2019-05-06T06:31:13.113Z,9.74
2019-05-06T06:32:26.567Z,9.73
2019-05-06T06:33:32.983Z,9.74
2019-05-06T06:34:48.803Z,9.77
2019-05-06T06:36:02.985Z,9.78
2019-05-06T06:37:25.557Z,9.78
2019-05-06T06:38:55.338Z,9.80
2019-05-06T06:40:02.538Z,9.84
2019-05-06T06:41:07.493Z,9.81
2019-05-06T06:42:12.811Z,9.88
2019-05-06T06:43:22.993Z,9.88
2019-05-06T06:44:30.442Z,9.90
2019-05-06T06:45:36.648Z,9.93
2019-05-06T06:46:42.937Z,9.98
2019-05-06T06:47:48.688Z,10.02
2019-05-06T06:48:53.963Z,10.01
2019-05-06T06:49:59.062Z,10.08
2019-05-06T06:51:04.281Z,10.12
2019-05-06T06:52:12.345Z,10.15
2019-05-06T06:53:16.783Z,10.17
2019-05-06T06:54:22.836Z,10.17
2019-05-06T06:55:27.979Z,10.15
2019-05-06T06:56:42.277Z,10.15
2019-05-06T06:57:56.902Z,10.16
2019-05-06T06:59:22.187Z,10.15
2019-05-06T07:00:36.322Z,10.12
2019-05-06T07:01:52.975Z,10.12
2019-05-06T07:03:08.178Z,10.10
2019-05-06T07:04:18.304Z,10.08
2019-05-06T07:05:33.257Z,10.06
2019-05-06T07:06:44.581Z,9.99
2019-05-06T07:07:49.767Z,10.03
2019-05-06T07:08:54.777Z,10.02
2019-05-06T07:09:59.730Z,10.01
2019-05-06T07:11:04.854Z,10.00
2019-05-06T07:12:10.636Z,9.99
2019-05-06T07:13:17.492Z,9.98
2019-05-06T07:14:22.748Z,10.00
2019-05-06T07:15:28.067Z,9.99
2019-05-06T07:16:33.107Z,10.00
2019-05-06T07:17:38.273Z,10.00
2019-05-06T07:18:43.502Z,10.00
2019-05-06T07:19:52.779Z,9.97
2019-05-06T07:21:13.987Z,10.02
2019-05-06T07:22:19.124Z,10.04
2019-05-06T07:23:24.355Z,10.10
2019-05-06T07:24:29.323Z,10.12
2019-05-06T07:25:34.276Z,10.15
2019-05-06T07:26:45.791Z,10.22
2019-05-06T07:27:52.966Z,10.22
2019-05-06T07:28:58.030Z,10.25
2019-05-06T07:30:03.283Z,10.33
2019-05-06T07:31:18.655Z,10.34
2019-05-06T07:32:15.451Z,10.34
2019-05-06T07:33:22.671Z,10.41
2019-05-06T07:34:27.375Z,10.43
2019-05-06T07:35:40.454Z,10.42
2019-05-06T07:36:39.234Z,10.50
2019-05-06T07:37:44.327Z,10.50
2019-05-06T07:38:53.027Z,10.60
2019-05-06T07:39:58.583Z,10.64
2019-05-06T07:41:14.866Z,10.71
2019-05-06T07:42:26.596Z,10.75
2019-05-06T07:43:48.034Z,10.83
2019-05-06T07:45:15.009Z,10.87
2019-05-06T07:46:30.369Z,10.95
2019-05-06T07:47:42.796Z,10.99
2019-05-06T07:48:47.837Z,11.01
2019-05-06T07:49:53.272Z,10.97
2019-05-06T07:50:58.754Z,10.97
2019-05-06T07:52:03.836Z,10.95
2019-05-06T07:53:09.619Z,10.93
2019-05-06T07:54:14.927Z,10.90
2019-05-06T07:55:19.949Z,10.93
2019-05-06T07:56:25.268Z,10.92
2019-05-06T07:57:32.814Z,10.89
2019-05-06T07:58:37.455Z,10.88
2019-05-06T07:59:43.003Z,10.87
2019-05-06T08:00:47.971Z,10.85
2019-05-06T08:01:54.036Z,10.82
2019-05-06T08:02:59.562Z,10.80
2019-05-06T08:04:04.870Z,10.79
2019-05-06T08:05:09.994Z,10.75
2019-05-06T08:06:15.120Z,10.73
2019-05-06T08:07:22.304Z,10.72
2019-05-06T08:08:27.344Z,10.72
2019-05-06T08:09:32.704Z,10.71
2019-05-06T08:10:38.079Z,10.68
2019-05-06T08:11:43.153Z,10.72
2019-05-06T08:12:48.411Z,10.72
2019-05-06T08:13:53.460Z,10.74
2019-05-06T08:14:58.574Z,10.76
2019-05-06T08:16:03.643Z,10.78
2019-05-06T08:17:09.066Z,10.92
2019-05-06T08:18:14.409Z,10.92
2019-05-06T08:19:19.419Z,11.01
2019-05-06T08:20:36.583Z,11.10
2019-05-06T08:21:43.016Z,11.19
2019-05-06T08:23:01.994Z,11.28
2019-05-06T08:24:06.994Z,11.37
2019-05-06T08:25:12.279Z,11.44
2019-05-06T08:26:17.945Z,11.52
2019-05-06T08:27:23.055Z,11.56
2019-05-06T08:28:38.569Z,11.59
2019-05-06T08:29:35.442Z,11.62
2019-05-06T08:30:42.832Z,11.64
2019-05-06T08:31:47.361Z,11.64
2019-05-06T08:32:52.868Z,11.65
2019-05-06T08:33:58.836Z,11.69
2019-05-06T08:35:04.017Z,11.74
2019-05-06T08:36:14.851Z,11.80
2019-05-06T08:37:32.273Z,11.88
2019-05-06T08:38:54.803Z,11.96
2019-05-06T08:39:59.895Z,12.07
2019-05-06T08:41:05.021Z,12.15
2019-05-06T08:42:10.131Z,12.19
2019-05-06T08:43:15.149Z,12.22
2019-05-06T08:44:22.392Z,12.26
2019-05-06T08:45:27.222Z,12.32
2019-05-06T08:46:32.853Z,12.36
2019-05-06T08:47:37.983Z,12.37
2019-05-06T08:48:43.103Z,12.36
2019-05-06T08:50:22.244Z,12.34
2019-05-06T08:51:36.801Z,12.33
2019-05-06T08:52:59.501Z,12.33
2019-05-06T08:54:09.506Z,12.31
2019-05-06T08:55:25.503Z,12.23
2019-05-06T08:56:32.071Z,12.16
2019-05-06T08:57:37.126Z,12.09
2019-05-06T08:58:49.175Z,12.01
2019-05-06T08:59:54.130Z,11.96
2019-05-06T09:01:05.955Z,11.96
2019-05-06T09:02:13.563Z,11.96
2019-05-06T09:03:17.993Z,11.99
2019-05-06T09:04:23.075Z,12.01
2019-05-06T09:05:27.944Z,12.01
2019-05-06T09:06:34.397Z,11.99
2019-05-06T09:07:39.412Z,12.03
2019-05-06T09:08:44.361Z,12.08
2019-05-06T09:09:49.438Z,12.15
2019-05-06T09:10:54.665Z,12.21
2019-05-06T09:11:59.858Z,12.26
2019-05-06T09:13:04.813Z,12.31
2019-05-06T09:14:13.096Z,12.37
2019-05-06T09:15:16.732Z,12.45
2019-05-06T09:16:22.454Z,12.52
2019-05-06T09:17:27.705Z,12.63
2019-05-06T09:18:33.011Z,12.75
2019-05-06T09:19:38.006Z,12.86
2019-05-06T09:20:43.334Z,12.93
2019-05-06T09:21:48.188Z,12.98
2019-05-06T09:22:53.114Z,13.01
2019-05-06T09:23:58.258Z,13.04
2019-05-06T09:25:03.376Z,13.04
2019-05-06T09:26:10.079Z,13.06
2019-05-06T09:27:32.809Z,13.05
2019-05-06T09:28:42.787Z,13.08
2019-05-06T09:29:53.027Z,13.05
2019-05-06T09:31:04.346Z,13.02
2019-05-06T09:32:14.204Z,13.00
2019-05-06T09:33:23.486Z,13.01
2019-05-06T09:34:35.080Z,13.08
2019-05-06T09:35:42.199Z,13.17
2019-05-06T09:36:52.646Z,13.28
2019-05-06T09:37:56.018Z,13.36
2019-05-06T09:39:02.300Z,13.44
2019-05-06T09:40:08.644Z,13.51
2019-05-06T09:41:13.712Z,13.55
2019-05-06T09:42:18.765Z,13.62
2019-05-06T09:43:23.773Z,13.71
2019-05-06T09:44:28.756Z,13.79
2019-05-06T09:45:33.955Z,13.84
2019-05-06T09:46:38.888Z,13.89
2019-05-06T09:48:05.388Z,13.93
2019-05-06T09:49:18.497Z,13.95
2019-05-06T09:50:38.546Z,13.91
2019-05-06T09:51:43.560Z,13.86
2019-05-06T09:52:48.518Z,13.86
2019-05-06T09:54:23.651Z,13.86
2019-05-06T09:55:43.099Z,13.85
2019-05-06T09:56:55.408Z,13.87
2019-05-06T09:58:04.768Z,13.88
2019-05-06T09:59:10.143Z,13.88
2019-05-06T10:00:18.081Z,13.88
2019-05-06T10:01:23.088Z,13.88
2019-05-06T10:02:28.273Z,13.92
2019-05-06T10:03:33.390Z,13.95
2019-05-06T10:04:38.696Z,13.99
2019-05-06T10:05:43.697Z,14.04
2019-05-06T10:06:59.057Z,14.14
2019-05-06T10:07:55.828Z,14.22
2019-05-06T10:09:04.677Z,14.30
2019-05-06T10:10:07.814Z,14.35
2019-05-06T10:11:12.757Z,14.39
2019-05-06T10:12:17.844Z,14.41
2019-05-06T10:13:22.900Z,14.45
2019-05-06T10:14:27.997Z,14.49
2019-05-06T10:15:33.173Z,14.49
2019-05-06T10:16:38.485Z,14.49
2019-05-06T10:17:43.755Z,14.50
2019-05-06T10:18:48.847Z,14.53
2019-05-06T10:19:53.838Z,14.54
2019-05-06T10:20:58.890Z,14.57
2019-05-06T10:22:03.983Z,14.58
2019-05-06T10:23:09.800Z,14.58
2019-05-06T10:24:14.870Z,14.52
2019-05-06T10:25:19.963Z,14.48
2019-05-06T10:26:25.437Z,14.44
2019-05-06T10:27:30.531Z,14.40
2019-05-06T10:28:46.660Z,14.36
2019-05-06T10:29:57.334Z,14.30
2019-05-06T10:31:02.737Z,14.25
2019-05-06T10:32:18.832Z,14.21
2019-05-06T10:33:24.547Z,14.16
2019-05-06T10:34:29.676Z,14.08
2019-05-06T10:35:34.774Z,14.03
2019-05-06T10:36:49.015Z,13.95
2019-05-06T10:38:14.131Z,13.84
2019-05-06T10:39:22.908Z,13.76
2019-05-06T10:40:33.135Z,13.68
2019-05-06T10:41:42.215Z,13.63
2019-05-06T10:43:04.521Z,13.55
2019-05-06T10:44:26.149Z,13.49
2019-05-06T10:45:32.490Z,13.45
2019-05-06T10:46:37.557Z,13.42
2019-05-06T10:47:42.595Z,13.46
2019-05-06T10:48:47.611Z,13.49
2019-05-06T10:49:53.087Z,13.52
2019-05-06T10:51:03.650Z,13.56
2019-05-06T10:52:16.339Z,13.60
2019-05-06T10:53:23.378Z,13.61
2019-05-06T10:54:29.119Z,13.64
2019-05-06T10:55:34.153Z,13.65
2019-05-06T10:56:52.820Z,13.68
2019-05-06T10:57:55.927Z,13.69
2019-05-06T10:59:02.426Z,13.73
2019-05-06T11:00:08.061Z,13.74
2019-05-06T11:01:24.319Z,13.75
2019-05-06T11:02:52.387Z,13.76
2019-05-06T11:03:57.452Z,13.80
2019-05-06T11:05:02.931Z,13.85
2019-05-06T11:06:08.269Z,13.88
2019-05-06T11:07:28.172Z,13.91
2019-05-06T11:08:22.121Z,13.95
2019-05-06T11:09:27.221Z,14.01
2019-05-06T11:10:40.077Z,14.05
2019-05-06T11:11:39.083Z,14.05
2019-05-06T11:12:44.257Z,14.07
2019-05-06T11:13:49.546Z,14.07
2019-05-06T11:14:55.818Z,14.05
2019-05-06T11:16:03.329Z,14.05
2019-05-06T11:17:07.861Z,14.05
2019-05-06T11:18:13.690Z,14.02
2019-05-06T11:19:19.614Z,14.04
2019-05-06T11:20:24.620Z,14.07
2019-05-06T11:21:29.947Z,14.14
2019-05-06T11:22:35.543Z,14.19
2019-05-06T11:23:41.881Z,14.23
2019-05-06T11:24:46.932Z,14.27
2019-05-06T11:25:52.628Z,14.30
2019-05-06T11:26:58.064Z,14.32
2019-05-06T11:28:05.154Z,14.30
2019-05-06T11:29:15.353Z,14.26
2019-05-06T11:30:42.747Z,14.21
2019-05-06T11:32:02.215Z,14.18
2019-05-06T11:33:13.125Z,14.14
2019-05-06T11:34:26.434Z,14.12
2019-05-06T11:35:52.844Z,14.12
2019-05-06T11:37:28.199Z,14.10
2019-05-06T11:38:33.171Z,14.14
2019-05-06T11:39:38.153Z,14.19
2019-05-06T11:40:43.203Z,14.21
2019-05-06T11:42:05.264Z,14.26
2019-05-06T11:42:55.167Z,14.28
2019-05-06T11:44:00.370Z,14.29
2019-05-06T11:45:06.520Z,14.30
2019-05-06T11:46:12.314Z,14.32
2019-05-06T11:47:17.382Z,14.35
2019-05-06T11:48:22.551Z,14.36
2019-05-06T11:49:27.462Z,14.40
2019-05-06T11:50:33.428Z,14.41
2019-05-06T11:51:39.126Z,14.41
2019-05-06T11:52:44.092Z,14.40
2019-05-06T11:53:49.381Z,14.41
2019-05-06T11:54:54.568Z,14.41
2019-05-06T11:56:01.936Z,14.40
2019-05-06T11:57:07.988Z,14.38
2019-05-06T11:58:30.580Z,14.33
2019-05-06T11:59:35.566Z,14.30
2019-05-06T12:00:44.229Z,14.27
2019-05-06T12:01:53.423Z,14.26
2019-05-06T12:02:58.968Z,14.23
2019-05-06T12:04:04.003Z,14.18
2019-05-06T12:05:09.151Z,14.15
2019-05-06T12:06:14.419Z,14.14
2019-05-06T12:07:19.475Z,14.15
2019-05-06T12:08:24.853Z,14.18
2019-05-06T12:09:32.809Z,14.23
2019-05-06T12:10:36.395Z,14.27
2019-05-06T12:11:43.132Z,14.31
2019-05-06T12:12:47.993Z,14.33
2019-05-06T12:13:53.420Z,14.34
2019-05-06T12:14:58.487Z,14.34
2019-05-06T12:16:03.814Z,14.34
2019-05-06T12:17:08.982Z,14.37
2019-05-06T12:18:13.928Z,14.44
2019-05-06T12:19:19.032Z,14.48
2019-05-06T12:20:24.165Z,14.50
2019-05-06T12:21:29.190Z,14.51
2019-05-06T12:22:36.923Z,14.52
2019-05-06T12:23:44.765Z,14.53
2019-05-06T12:24:48.647Z,14.53
2019-05-06T12:25:53.635Z,14.56
2019-05-06T12:26:58.577Z,14.62
2019-05-06T12:28:03.581Z,14.66
2019-05-06T12:29:08.616Z,14.73
2019-05-06T12:30:15.581Z,14.79
2019-05-06T12:31:23.125Z,14.84
2019-05-06T12:32:35.392Z,14.90
2019-05-06T12:33:44.613Z,14.97
2019-05-06T12:34:49.544Z,14.99
2019-05-06T12:35:54.580Z,14.98
2019-05-06T12:37:02.709Z,14.92
2019-05-06T12:38:23.065Z,14.86
2019-05-06T12:39:28.752Z,14.79
2019-05-06T12:40:33.819Z,14.73
2019-05-06T12:41:55.138Z,14.71
2019-05-06T12:43:19.183Z,14.74
2019-05-06T12:44:24.386Z,14.78
2019-05-06T12:45:36.019Z,14.80
2019-05-06T12:46:53.105Z,14.80
2019-05-06T12:48:15.899Z,14.82
2019-05-06T12:49:20.879Z,14.80
2019-05-06T12:50:25.910Z,14.82
2019-05-06T12:51:32.261Z,14.82
2019-05-06T12:52:37.444Z,14.81
2019-05-06T12:53:42.894Z,14.78
2019-05-06T12:54:47.981Z,14.73
2019-05-06T12:55:53.165Z,14.67
2019-05-06T12:56:59.199Z,14.62
2019-05-06T12:58:04.289Z,14.60
2019-05-06T12:59:09.197Z,14.57
2019-05-06T13:00:14.719Z,14.57
2019-05-06T13:01:19.981Z,14.57
2019-05-06T13:02:25.001Z,14.60
2019-05-06T13:03:32.589Z,14.60
2019-05-06T13:04:51.728Z,14.61
2019-05-06T13:05:44.084Z,14.65
2019-05-06T13:06:49.349Z,14.62
2019-05-06T13:07:54.490Z,14.62
2019-05-06T13:09:04.101Z,14.65
2019-05-06T13:10:06.988Z,14.70
2019-05-06T13:11:13.142Z,14.72
2019-05-06T13:12:23.168Z,14.76
2019-05-06T13:13:28.195Z,14.81
2019-05-06T13:14:33.631Z,14.89
2019-05-06T13:15:39.288Z,14.95
2019-05-06T13:16:44.418Z,15.00
2019-05-06T13:17:49.508Z,15.02
2019-05-06T13:18:55.066Z,15.07
2019-05-06T13:20:00.343Z,15.09
2019-05-06T13:21:06.609Z,15.07
2019-05-06T13:22:13.596Z,15.08
2019-05-06T13:23:34.663Z,15.05
2019-05-06T13:24:37.332Z,15.02
2019-05-06T13:25:45.383Z,15.01
2019-05-06T13:26:49.097Z,15.02
2019-05-06T13:27:54.275Z,15.01
2019-05-06T13:29:04.356Z,14.97
2019-05-06T13:30:12.933Z,14.95
2019-05-06T13:31:21.529Z,14.95
2019-05-06T13:32:25.889Z,14.96
2019-05-06T13:33:46.649Z,14.97
2019-05-06T13:34:54.002Z,15.00
2019-05-06T13:35:59.616Z,15.06
2019-05-06T13:37:05.628Z,15.08
2019-05-06T13:38:10.773Z,15.13
2019-05-06T13:39:15.935Z,15.20
2019-05-06T13:40:22.991Z,15.23
2019-05-06T13:41:28.023Z,15.26
2019-05-06T13:42:34.933Z,15.27
2019-05-06T13:43:49.673Z,15.30
2019-05-06T13:44:54.634Z,15.36
2019-05-06T13:46:03.552Z,15.38
2019-05-06T13:47:12.136Z,15.38
2019-05-06T13:48:22.973Z,15.36
2019-05-06T13:49:53.173Z,15.37
2019-05-06T13:51:03.346Z,15.41
2019-05-06T13:52:12.920Z,15.47
2019-05-06T13:53:17.995Z,15.47
2019-05-06T13:54:23.094Z,15.46
2019-05-06T13:55:28.355Z,15.42
2019-05-06T13:56:33.687Z,15.38
2019-05-06T13:57:39.395Z,15.32
2019-05-06T13:58:44.739Z,15.30
2019-05-06T13:59:52.980Z,15.30
2019-05-06T14:00:57.730Z,15.31
2019-05-06T14:02:20.296Z,15.35
2019-05-06T14:03:25.531Z,15.40
2019-05-06T14:04:32.621Z,15.46
2019-05-06T14:05:37.543Z,15.51
2019-05-06T14:06:43.424Z,15.56
2019-05-06T14:07:48.812Z,15.59
2019-05-06T14:08:54.046Z,15.62
2019-05-06T14:09:59.131Z,15.65
2019-05-06T14:11:04.381Z,15.69
2019-05-06T14:12:09.418Z,15.72
2019-05-06T14:13:14.411Z,15.74
2019-05-06T14:14:19.906Z,15.72
2019-05-06T14:15:25.243Z,15.70
2019-05-06T14:16:33.148Z,15.70
2019-05-06T14:17:36.949Z,15.67
2019-05-06T14:18:42.845Z,15.61
2019-05-06T14:19:50.358Z,15.57
2019-05-06T14:20:55.376Z,15.54
2019-05-06T14:22:02.773Z,15.51
2019-05-06T14:23:07.137Z,15.50
2019-05-06T14:24:13.328Z,15.53
2019-05-06T14:25:39.491Z,15.57
2019-05-06T14:26:49.721Z,15.60
2019-05-06T14:27:57.648Z,15.63
2019-05-06T14:29:09.615Z,15.66
2019-05-06T14:30:19.820Z,15.64
2019-05-06T14:31:27.195Z,15.64
2019-05-06T14:32:32.844Z,15.64
2019-05-06T14:33:38.206Z,15.64
2019-05-06T14:34:43.589Z,15.61
2019-05-06T14:35:49.010Z,15.57
2019-05-06T14:36:54.361Z,15.52
2019-05-06T14:38:00.086Z,15.48
2019-05-06T14:39:08.084Z,15.43
2019-05-06T14:40:16.625Z,15.38
2019-05-06T14:41:26.894Z,15.32
2019-05-06T14:42:30.360Z,15.29
2019-05-06T14:43:35.744Z,15.25
2019-05-06T14:44:43.017Z,15.19
2019-05-06T14:45:47.927Z,15.16
2019-05-06T14:47:15.182Z,15.12
2019-05-06T14:48:22.384Z,15.09
2019-05-06T14:49:26.705Z,15.06
2019-05-06T14:50:44.188Z,15.04